createdAt,value
2018-03-22T00:00:39.305Z,9.77
2018-03-22T00:03:06.780Z,10.40
2018-03-22T00:05:34.253Z,9.93
2018-03-22T00:08:02.487Z,9.50
2018-03-22T00:10:30.062Z,9.33
2018-03-22T00:12:57.534Z,10.47
2018-03-22T00:15:25.787Z,9.90
2018-03-22T00:17:53.239Z,9.07
2018-03-22T00:20:20.706Z,10.77
2018-03-22T00:22:48.160Z,11.80
2018-03-22T00:25:15.630Z,8.70
2018-03-22T00:27:43.090Z,8.98
2018-03-22T00:30:11.350Z,10.57
2018-03-22T00:32:38.912Z,10.30
2018-03-22T00:35:06.385Z,10.33
2018-03-22T00:37:34.621Z,9.33
2018-03-22T00:40:02.210Z,8.40
2018-03-22T00:42:29.663Z,8.00
2018-03-22T00:44:57.137Z,8.47
2018-03-22T00:47:25.382Z,9.40
2018-03-22T00:49:52.861Z,7.97
2018-03-22T00:52:20.320Z,7.30
2018-03-22T00:54:47.785Z,6.93
2018-03-22T00:57:16.013Z,7.30
2018-03-22T00:59:43.457Z,7.05
2018-03-22T01:02:10.926Z,6.53
2018-03-22T01:04:38.379Z,6.13
2018-03-22T01:07:05.850Z,7.20
2018-03-22T01:09:33.305Z,6.33
2018-03-22T01:12:00.779Z,7.40
2018-03-22T01:14:28.244Z,6.90
2018-03-22T01:16:55.710Z,7.07
2018-03-22T01:19:23.172Z,6.80
2018-03-22T01:21:50.630Z,6.60
2018-03-22T01:24:18.867Z,6.60
2018-03-22T01:26:46.326Z,6.40
2018-03-22T01:29:13.798Z,6.47
2018-03-22T01:31:42.029Z,6.40
2018-03-22T01:34:09.476Z,7.50
2018-03-22T01:36:36.940Z,6.30
2018-03-22T01:39:04.405Z,6.50
2018-03-22T01:41:31.852Z,6.20
2018-03-22T01:43:59.317Z,6.33
2018-03-22T01:46:26.816Z,6.30
2018-03-22T01:48:54.274Z,6.33
2018-03-22T01:51:21.734Z,7.47
2018-03-22T01:53:59.047Z,6.90
2018-03-22T01:56:27.276Z,6.40
2018-03-22T01:58:54.734Z,6.60
2018-03-22T02:01:22.191Z,6.53
2018-03-22T02:03:49.655Z,6.10
2018-03-22T02:06:17.125Z,6.97
2018-03-22T02:08:44.593Z,6.90
2018-03-22T02:11:12.141Z,6.57
2018-03-22T02:13:39.607Z,6.83
2018-03-22T02:16:07.071Z,6.60
2018-03-22T02:18:34.536Z,6.70
2018-03-22T02:21:02.008Z,6.80
2018-03-22T02:23:30.242Z,6.70
2018-03-22T02:25:57.730Z,7.70
2018-03-22T02:28:25.184Z,7.27
2018-03-22T02:30:53.430Z,7.40
2018-03-22T02:33:20.907Z,6.70
2018-03-22T02:35:49.866Z,7.40
2018-03-22T02:38:17.339Z,8.07
2018-03-22T02:40:44.799Z,7.47
2018-03-22T02:43:12.255Z,8.10
2018-03-22T02:45:39.716Z,7.63
2018-03-22T02:48:07.174Z,5.50
2018-03-22T02:50:34.637Z,5.28
2018-03-22T02:53:03.626Z,4.90
2018-03-22T02:55:31.081Z,4.70
2018-03-22T02:57:58.538Z,5.77
2018-03-22T03:00:27.016Z,5.73
2018-03-22T03:02:54.451Z,4.83
2018-03-22T03:05:21.964Z,4.80
2018-03-22T03:07:50.190Z,5.63
2018-03-22T03:10:17.764Z,6.10
2018-03-22T03:12:45.211Z,6.03
2018-03-22T03:15:12.678Z,6.53
2018-03-22T03:17:40.140Z,6.00
2018-03-22T03:20:07.601Z,5.33
2018-03-22T03:22:35.036Z,5.90
2018-03-22T03:25:02.511Z,5.20
2018-03-22T03:27:29.963Z,5.47
2018-03-22T03:29:57.412Z,5.83
2018-03-22T03:32:24.861Z,6.60
2018-03-22T03:34:52.321Z,7.12
2018-03-22T03:37:19.798Z,6.60
2018-03-22T03:39:47.374Z,7.90
2018-03-22T03:42:14.825Z,8.30
2018-03-22T03:44:42.292Z,11.15
2018-03-22T03:47:10.565Z,10.67
2018-03-22T03:49:38.004Z,6.53
2018-03-22T03:52:05.455Z,8.33
2018-03-22T03:54:32.916Z,7.57
2018-03-22T03:57:00.377Z,7.35
2018-03-22T03:59:27.932Z,8.30
2018-03-22T04:01:55.413Z,8.23
2018-03-22T04:04:22.894Z,7.70
2018-03-22T04:06:50.348Z,8.40
2018-03-22T04:09:18.587Z,6.97
2018-03-22T04:11:46.066Z,8.60
2018-03-22T04:14:13.518Z,7.50
2018-03-22T04:16:40.977Z,8.50
2018-03-22T04:19:08.442Z,6.97
2018-03-22T04:21:36.678Z,6.80
2018-03-22T04:24:04.145Z,7.00
2018-03-22T04:26:31.618Z,6.30
2018-03-22T04:28:59.098Z,6.20
2018-03-22T04:31:27.332Z,5.90
2018-03-22T04:33:54.789Z,5.07
2018-03-22T04:36:22.250Z,5.30
2018-03-22T04:38:49.720Z,4.93
2018-03-22T04:41:17.194Z,5.07
2018-03-22T04:43:45.410Z,6.63
2018-03-22T04:46:12.879Z,9.90
2018-03-22T04:48:40.323Z,4.53
2018-03-22T04:51:07.796Z,3.78
2018-03-22T04:53:35.239Z,4.30
2018-03-22T04:56:02.704Z,4.60
2018-03-22T04:58:30.153Z,5.23
2018-03-22T05:00:57.600Z,5.27
2018-03-22T05:03:25.053Z,4.90
2018-03-22T05:05:52.513Z,7.23
2018-03-22T05:08:19.960Z,9.93
2018-03-22T05:10:47.425Z,6.80
2018-03-22T05:13:14.878Z,5.93
2018-03-22T05:15:42.331Z,6.20
2018-03-22T05:18:09.796Z,6.33
2018-03-22T05:20:37.248Z,5.87
2018-03-22T05:23:04.700Z,6.23
2018-03-22T05:25:32.198Z,6.70
2018-03-22T05:27:59.673Z,6.40
2018-03-22T05:30:27.131Z,6.60
2018-03-22T05:32:54.584Z,7.00
2018-03-22T05:35:22.056Z,7.27
2018-03-22T05:37:49.543Z,6.93
2018-03-22T05:40:17.760Z,8.20
2018-03-22T05:42:45.230Z,8.20
2018-03-22T05:45:12.679Z,6.80
2018-03-22T05:47:40.153Z,7.60
2018-03-22T05:50:09.121Z,5.23
2018-03-22T05:52:36.585Z,5.60
2018-03-22T05:55:04.061Z,6.10
2018-03-22T05:57:33.040Z,6.60
2018-03-22T06:00:00.493Z,6.33
2018-03-22T06:02:27.973Z,6.73
2018-03-22T06:04:55.444Z,7.30
2018-03-22T06:07:22.916Z,7.30
2018-03-22T06:09:51.147Z,7.57
2018-03-22T06:12:18.623Z,7.37
2018-03-22T06:14:46.096Z,11.30
2018-03-22T06:17:14.326Z,7.90
2018-03-22T06:19:41.802Z,17.02
2018-03-22T06:22:09.271Z,15.40
2018-03-22T06:24:36.727Z,14.27
2018-03-22T06:27:05.732Z,13.77
2018-03-22T06:29:33.973Z,12.60
2018-03-22T06:32:01.424Z,12.03
2018-03-22T06:34:28.901Z,9.97
2018-03-22T06:36:56.367Z,4.57
2018-03-22T06:39:23.826Z,4.53
2018-03-22T06:41:51.389Z,4.30
2018-03-22T06:44:27.738Z,4.47
2018-03-22T06:46:55.202Z,5.23
2018-03-22T06:49:22.673Z,4.60
2018-03-22T06:51:50.131Z,3.63
2018-03-22T06:54:18.357Z,4.80
2018-03-22T06:56:45.817Z,4.67
2018-03-22T06:59:14.052Z,9.80
2018-03-22T07:01:42.265Z,4.03
2018-03-22T07:04:09.734Z,3.87
2018-03-22T07:06:37.196Z,4.47
2018-03-22T07:09:05.426Z,4.23
2018-03-22T07:11:32.890Z,4.60
2018-03-22T07:14:00.356Z,4.90
2018-03-22T07:16:27.815Z,3.87
2018-03-22T07:18:55.276Z,4.90
2018-03-22T07:21:22.723Z,3.73
2018-03-22T07:23:50.173Z,4.50
2018-03-22T07:26:17.642Z,4.17
2018-03-22T07:28:45.100Z,4.43
2018-03-22T07:31:12.630Z,4.17
2018-03-22T07:33:40.080Z,4.90
2018-03-22T07:36:08.330Z,4.57
2018-03-22T07:38:35.797Z,4.87
2018-03-22T07:41:03.261Z,4.53
2018-03-22T07:43:36.368Z,4.20
2018-03-22T07:46:05.091Z,6.32
2018-03-22T07:48:32.547Z,5.70
2018-03-22T07:51:00.044Z,6.33
2018-03-22T07:53:27.501Z,5.30
2018-03-22T07:55:54.964Z,5.00
2018-03-22T07:58:22.415Z,5.00
2018-03-22T08:00:49.874Z,5.67
2018-03-22T08:03:18.229Z,5.60
2018-03-22T08:05:45.715Z,6.33
2018-03-22T08:08:13.941Z,6.10
2018-03-22T08:10:41.412Z,5.70
2018-03-22T08:13:08.864Z,6.57
2018-03-22T08:15:36.332Z,13.80
2018-03-22T08:18:03.779Z,18.57
2018-03-22T08:20:31.260Z,8.70
2018-03-22T08:22:58.703Z,7.00
2018-03-22T08:25:26.159Z,6.90
2018-03-22T08:27:53.641Z,7.10
2018-03-22T08:30:21.104Z,10.37
2018-03-22T08:32:48.555Z,6.73
2018-03-22T08:35:16.022Z,7.87
2018-03-22T08:37:45.002Z,7.00
2018-03-22T08:40:12.468Z,6.93
2018-03-22T08:42:40.021Z,6.35
2018-03-22T08:45:07.475Z,7.97
2018-03-22T08:47:34.931Z,7.87
2018-03-22T08:50:02.397Z,7.23
2018-03-22T08:52:29.839Z,6.37
2018-03-22T08:54:57.298Z,7.50
2018-03-22T08:57:24.774Z,6.40
2018-03-22T08:59:52.224Z,6.30
2018-03-22T09:02:19.776Z,5.57
2018-03-22T09:04:47.248Z,4.60
2018-03-22T09:07:14.712Z,4.77
2018-03-22T09:09:42.155Z,4.83
2018-03-22T09:12:09.604Z,3.85
2018-03-22T09:14:37.052Z,4.50
2018-03-22T09:17:04.500Z,3.73
2018-03-22T09:19:31.961Z,4.07
2018-03-22T09:21:59.423Z,4.50
2018-03-22T09:24:26.856Z,3.93
2018-03-22T09:26:59.940Z,3.27
2018-03-22T09:29:27.384Z,3.70
2018-03-22T09:31:54.832Z,3.53
2018-03-22T09:34:22.298Z,3.70
2018-03-22T09:36:51.102Z,3.23
2018-03-22T09:39:18.566Z,4.27
2018-03-22T09:41:46.017Z,4.30
2018-03-22T09:44:13.478Z,3.60
2018-03-22T09:46:40.935Z,3.57
2018-03-22T09:49:08.839Z,4.00
2018-03-22T09:51:36.273Z,4.30
2018-03-22T09:54:03.742Z,4.10
2018-03-22T09:56:31.193Z,4.23
2018-03-22T09:58:58.657Z,4.30
2018-03-22T10:01:26.104Z,4.63
2018-03-22T10:03:53.559Z,4.50
2018-03-22T10:06:21.014Z,4.73
2018-03-22T10:08:48.452Z,5.60
2018-03-22T10:11:15.921Z,11.57
2018-03-22T10:13:43.372Z,6.53
2018-03-22T10:16:10.818Z,5.57
2018-03-22T10:18:38.276Z,7.53
2018-03-22T10:21:05.729Z,7.33
2018-03-22T10:23:33.193Z,8.07
2018-03-22T10:26:00.643Z,8.00
2018-03-22T10:28:28.083Z,8.00
2018-03-22T10:30:56.318Z,8.67
2018-03-22T10:33:23.774Z,8.50
2018-03-22T10:35:51.236Z,6.73
2018-03-22T10:38:18.664Z,7.90
2018-03-22T10:40:46.141Z,6.93
2018-03-22T10:43:15.165Z,7.15
2018-03-22T10:45:42.663Z,7.47
2018-03-22T10:48:10.115Z,7.73
2018-03-22T10:50:37.560Z,7.43
2018-03-22T10:53:04.999Z,7.83
2018-03-22T10:55:33.235Z,8.37
2018-03-22T10:58:00.673Z,8.50
2018-03-22T11:00:33.903Z,8.50
2018-03-22T11:03:06.931Z,8.63
2018-03-22T11:05:35.161Z,9.18
2018-03-22T11:08:02.603Z,10.83
2018-03-22T11:10:30.076Z,12.27
2018-03-22T11:12:57.537Z,10.00
2018-03-22T11:15:25.008Z,11.50
2018-03-22T11:17:52.478Z,12.13
2018-03-22T11:20:20.697Z,11.90
2018-03-22T11:22:48.152Z,12.60
2018-03-22T11:25:15.617Z,13.73
2018-03-22T11:27:43.102Z,12.15
2018-03-22T11:30:10.564Z,12.67
2018-03-22T11:32:38.004Z,14.80
2018-03-22T11:35:05.452Z,14.90
2018-03-22T11:37:32.944Z,14.63
2018-03-22T11:40:00.367Z,13.83
2018-03-22T11:42:27.830Z,13.60
2018-03-22T11:44:55.300Z,9.10
2018-03-22T11:47:22.774Z,13.40
2018-03-22T11:49:50.997Z,13.00
2018-03-22T11:52:18.456Z,15.43
2018-03-22T11:54:45.928Z,14.30
2018-03-22T11:57:13.388Z,14.63
2018-03-22T11:59:40.847Z,18.67
2018-03-22T12:02:08.315Z,16.30
2018-03-22T12:04:35.766Z,15.93
2018-03-22T12:07:03.226Z,13.90
2018-03-22T12:09:30.780Z,13.20
2018-03-22T12:11:58.232Z,13.27
2018-03-22T12:14:25.733Z,13.10
2018-03-22T12:16:53.157Z,13.60
2018-03-22T12:19:20.619Z,15.30
2018-03-22T12:21:48.085Z,14.00
2018-03-22T12:24:15.532Z,14.30
2018-03-22T12:26:43.023Z,14.93
2018-03-22T12:29:11.252Z,14.63
2018-03-22T12:31:38.715Z,15.23
2018-03-22T12:34:06.163Z,15.18
2018-03-22T12:36:33.636Z,14.63
2018-03-22T12:39:01.089Z,16.50
2018-03-22T12:41:28.541Z,16.63
2018-03-22T12:43:56.007Z,14.93
2018-03-22T12:46:23.453Z,16.43
2018-03-22T12:48:50.933Z,16.50
2018-03-22T12:51:18.384Z,16.77
2018-03-22T12:53:45.843Z,17.10
2018-03-22T12:56:13.291Z,17.45
2018-03-22T12:58:40.758Z,16.60
2018-03-22T13:01:08.209Z,16.00
2018-03-22T13:03:35.675Z,15.40
2018-03-22T13:06:03.119Z,16.03
2018-03-22T13:08:30.584Z,17.23
2018-03-22T13:10:58.146Z,16.53
2018-03-22T13:13:25.629Z,17.07
2018-03-22T13:15:53.852Z,17.80
2018-03-22T13:18:21.313Z,16.47
2018-03-22T13:20:48.781Z,16.50
2018-03-22T13:23:16.253Z,15.80
2018-03-22T13:25:43.704Z,18.20
2018-03-22T13:28:11.160Z,18.23
2018-03-22T13:30:38.613Z,17.73
2018-03-22T13:33:06.080Z,19.07
2018-03-22T13:35:33.560Z,20.27
2018-03-22T13:38:01.008Z,17.17
2018-03-22T13:40:29.252Z,17.50
2018-03-22T13:42:56.713Z,19.30
2018-03-22T13:45:24.186Z,18.77
2018-03-22T13:47:53.154Z,20.13
2018-03-22T13:50:20.636Z,16.50
2018-03-22T13:52:48.145Z,21.10
2018-03-22T13:55:15.607Z,20.40
2018-03-22T13:57:43.057Z,19.40
2018-03-22T14:00:10.528Z,18.40
2018-03-22T14:02:37.997Z,18.27
2018-03-22T14:05:05.440Z,17.20
2018-03-22T14:07:32.910Z,19.23
2018-03-22T14:10:00.362Z,17.00
2018-03-22T14:12:27.845Z,17.83
2018-03-22T14:14:55.330Z,17.27
2018-03-22T14:17:23.549Z,16.13
2018-03-22T14:19:50.999Z,17.20
2018-03-22T14:22:18.448Z,18.33
2018-03-22T14:24:45.916Z,15.38
2018-03-22T14:27:13.361Z,14.63
2018-03-22T14:29:40.844Z,13.50
2018-03-22T14:32:08.292Z,14.20
2018-03-22T14:34:35.757Z,14.00
2018-03-22T14:37:03.206Z,12.57
2018-03-22T14:39:30.680Z,15.10
2018-03-22T14:41:58.133Z,13.70
2018-03-22T14:44:25.628Z,13.30
2018-03-22T14:46:53.816Z,13.40
2018-03-22T14:49:22.031Z,13.30
2018-03-22T14:51:49.502Z,13.43
2018-03-22T14:54:16.963Z,12.13
2018-03-22T14:56:44.430Z,16.00
2018-03-22T14:59:11.890Z,12.20
2018-03-22T15:01:39.360Z,12.13
2018-03-22T15:04:06.803Z,12.60
2018-03-22T15:06:34.277Z,12.77
2018-03-22T15:09:02.509Z,11.93
2018-03-22T15:11:29.966Z,11.57
2018-03-22T15:13:57.451Z,12.27
2018-03-22T15:16:24.929Z,13.30
2018-03-22T15:18:52.372Z,11.83
2018-03-22T15:21:19.833Z,11.60
2018-03-22T15:23:47.301Z,11.70
2018-03-22T15:26:15.530Z,12.00
2018-03-22T15:28:42.970Z,11.57
2018-03-22T15:31:10.456Z,11.77
2018-03-22T15:33:37.912Z,11.60
2018-03-22T15:36:05.393Z,11.03
2018-03-22T15:38:32.845Z,11.27
2018-03-22T15:41:00.334Z,10.80
2018-03-22T15:43:28.552Z,10.38
2018-03-22T15:45:56.009Z,10.30
2018-03-22T15:48:23.480Z,11.17
2018-03-22T15:50:50.932Z,10.00
2018-03-22T15:53:18.406Z,10.00
2018-03-22T15:55:45.867Z,11.30
2018-03-22T15:58:13.353Z,12.00
2018-03-22T16:00:41.567Z,11.87
2018-03-22T16:03:09.039Z,10.93
2018-03-22T16:05:36.504Z,11.45
2018-03-22T16:08:03.966Z,12.50
2018-03-22T16:10:31.413Z,12.00
2018-03-22T16:12:58.872Z,10.90
2018-03-22T16:15:27.963Z,10.90
2018-03-22T16:17:55.442Z,11.30
2018-03-22T16:20:22.900Z,11.90
2018-03-22T16:22:51.127Z,11.27
2018-03-22T16:25:18.581Z,11.77
2018-03-22T16:27:46.067Z,10.73
2018-03-22T16:30:13.544Z,13.10
2018-03-22T16:32:41.009Z,10.83
2018-03-22T16:35:09.279Z,12.43
2018-03-22T16:37:36.732Z,9.80
2018-03-22T16:40:04.211Z,11.50
2018-03-22T16:42:32.457Z,10.43
2018-03-22T16:44:59.908Z,14.27
2018-03-22T16:47:27.372Z,12.37
2018-03-22T16:49:54.837Z,12.33
2018-03-22T16:52:22.289Z,12.60
2018-03-22T16:54:49.753Z,11.70
2018-03-22T16:57:17.204Z,13.00
2018-03-22T16:59:44.692Z,11.38
2018-03-22T17:02:12.901Z,12.50
2018-03-22T17:04:40.381Z,15.20
2018-03-22T17:07:07.853Z,17.00
2018-03-22T17:09:35.334Z,12.83
2018-03-22T17:12:03.567Z,20.25
2018-03-22T17:14:31.023Z,19.80
2018-03-22T17:16:58.480Z,18.70
2018-03-22T17:19:25.944Z,25.07
2018-03-22T17:21:53.415Z,25.17
2018-03-22T17:24:20.874Z,25.17
2018-03-22T17:26:48.333Z,23.97
2018-03-22T17:29:15.797Z,20.03
2018-03-22T17:31:43.254Z,28.03
2018-03-22T17:34:10.722Z,29.33
2018-03-22T17:36:38.950Z,20.67
2018-03-22T17:39:06.493Z,22.30
2018-03-22T17:41:33.925Z,25.30
2018-03-22T17:44:02.147Z,26.17
2018-03-22T17:46:29.592Z,34.10
2018-03-22T17:48:57.825Z,26.20
2018-03-22T17:51:26.061Z,23.40
2018-03-22T17:53:53.521Z,23.00
2018-03-22T17:56:21.005Z,21.40
2018-03-22T17:58:49.264Z,21.90
2018-03-22T18:01:16.717Z,22.03
2018-03-22T18:03:44.184Z,22.73
2018-03-22T18:06:11.643Z,23.70
2018-03-22T18:08:39.109Z,26.60
2018-03-22T18:11:06.576Z,22.45
2018-03-22T18:13:34.816Z,20.00
2018-03-22T18:16:02.297Z,17.40
2018-03-22T18:18:29.760Z,18.60
2018-03-22T18:20:58.016Z,17.10
2018-03-22T18:23:25.481Z,15.80
2018-03-22T18:25:52.933Z,15.03
2018-03-22T18:28:20.393Z,15.30
2018-03-22T18:30:47.851Z,14.40
2018-03-22T18:33:15.404Z,13.80
2018-03-22T18:35:42.870Z,15.00
2018-03-22T18:38:10.432Z,19.60
2018-03-22T18:40:37.911Z,17.07
2018-03-22T18:43:06.152Z,17.40
2018-03-22T18:45:33.634Z,17.77
2018-03-22T18:48:01.120Z,15.53
2018-03-22T18:50:28.617Z,17.42
2018-03-22T18:52:56.098Z,19.03
2018-03-22T18:55:23.572Z,16.97
2018-03-22T18:57:51.821Z,14.87
2018-03-22T19:00:19.293Z,18.00
2018-03-22T19:02:46.773Z,15.20
2018-03-22T19:05:15.050Z,17.73
2018-03-22T19:07:42.554Z,16.10
2018-03-22T19:10:10.062Z,14.00
2018-03-22T19:12:38.300Z,13.75
2018-03-22T19:15:05.796Z,13.90
2018-03-22T19:17:34.021Z,15.37
2018-03-22T19:20:01.493Z,12.70
2018-03-22T19:22:28.984Z,11.77
2018-03-22T19:24:57.218Z,10.33
2018-03-22T19:27:24.678Z,12.87
2018-03-22T19:29:52.157Z,11.73
2018-03-22T19:32:19.634Z,10.40
2018-03-22T19:34:47.871Z,11.70
2018-03-22T19:37:17.073Z,10.90
2018-03-22T19:39:44.557Z,10.90
2018-03-22T19:42:12.031Z,11.37
2018-03-22T19:44:40.279Z,11.90
2018-03-22T19:47:07.764Z,12.63
2018-03-22T19:49:36.008Z,13.63
2018-03-22T19:52:03.485Z,12.43
2018-03-22T19:54:31.727Z,12.20
2018-03-22T19:56:59.215Z,12.07
2018-03-22T19:59:26.694Z,11.67
2018-03-22T20:01:54.184Z,13.50
2018-03-22T20:04:21.648Z,14.10
2018-03-22T20:06:49.124Z,12.73
2018-03-22T20:09:16.695Z,12.23
2018-03-22T20:11:44.173Z,12.30
2018-03-22T20:14:12.397Z,12.13
2018-03-22T20:16:39.874Z,11.77
2018-03-22T20:19:07.337Z,12.87
2018-03-22T20:21:35.580Z,14.00
2018-03-22T20:24:03.053Z,14.10
2018-03-22T20:26:30.519Z,12.60
2018-03-22T20:28:59.114Z,12.95
2018-03-22T20:31:26.590Z,12.20
2018-03-22T20:33:54.849Z,11.90
2018-03-22T20:36:22.313Z,13.60
2018-03-22T20:38:49.792Z,12.63
2018-03-22T20:41:41.088Z,13.10
2018-03-22T20:44:08.626Z,11.23
2018-03-22T20:46:36.111Z,13.20
2018-03-22T20:49:04.355Z,13.07
2018-03-22T20:51:31.812Z,15.80
2018-03-22T20:53:59.304Z,16.37
2018-03-22T20:56:27.698Z,14.40
2018-03-22T20:58:55.061Z,13.80
2018-03-22T21:01:22.495Z,12.85
2018-03-22T21:03:50.755Z,13.10
2018-03-22T21:06:18.226Z,14.87
2018-03-22T21:08:46.464Z,14.20
2018-03-22T21:11:15.160Z,14.27
2018-03-22T21:13:42.633Z,15.03
2018-03-22T21:16:10.097Z,15.33
2018-03-22T21:18:38.344Z,15.17
2018-03-22T21:21:05.812Z,14.23
2018-03-22T21:23:33.284Z,14.50
2018-03-22T21:26:00.753Z,15.40
2018-03-22T21:28:29.015Z,18.85
2018-03-22T21:30:56.466Z,16.40
2018-03-22T21:33:23.915Z,16.63
2018-03-22T21:35:51.373Z,15.00
2018-03-22T21:38:18.833Z,15.20
2018-03-22T21:40:46.298Z,15.83
2018-03-22T21:43:14.528Z,15.37
2018-03-22T21:45:41.993Z,15.70
2018-03-22T21:48:09.444Z,13.88
2018-03-22T21:50:47.862Z,14.60
2018-03-22T21:53:15.311Z,14.03
2018-03-22T21:55:42.779Z,13.32
2018-03-22T21:58:10.243Z,14.20
2018-03-22T22:00:37.697Z,13.73
2018-03-22T22:03:05.156Z,11.70
2018-03-22T22:05:32.822Z,11.80
2018-03-22T22:08:00.272Z,11.73
2018-03-22T22:10:27.743Z,10.80
2018-03-22T22:12:55.392Z,11.00
2018-03-22T22:15:22.880Z,12.23
2018-03-22T22:17:50.326Z,10.77
2018-03-22T22:20:17.794Z,11.03
2018-03-22T22:22:45.252Z,12.57
2018-03-22T22:25:12.716Z,12.57
2018-03-22T22:27:40.948Z,13.50
2018-03-22T22:30:08.423Z,11.80
2018-03-22T22:32:35.871Z,9.40
2018-03-22T22:35:03.333Z,8.90
2018-03-22T22:37:30.811Z,7.97
2018-03-22T22:39:58.260Z,8.38
2018-03-22T22:42:25.713Z,7.80
2018-03-22T22:45:05.852Z,7.43
2018-03-22T22:47:33.317Z,8.20
2018-03-22T22:50:00.768Z,7.75
2018-03-22T22:52:28.220Z,7.30
2018-03-22T22:54:55.664Z,8.27
2018-03-22T22:57:23.134Z,8.70
2018-03-22T22:59:50.572Z,8.00
2018-03-22T23:02:18.030Z,8.48
2018-03-22T23:04:45.481Z,8.80
2018-03-22T23:07:12.928Z,7.80
2018-03-22T23:09:40.376Z,8.20
2018-03-22T23:12:08.601Z,7.50
2018-03-22T23:14:36.064Z,7.43
2018-03-22T23:17:03.514Z,7.17
2018-03-22T23:19:30.972Z,6.90
2018-03-22T23:21:58.450Z,7.40
2018-03-22T23:24:27.429Z,8.65
2018-03-22T23:26:54.901Z,8.87
2018-03-22T23:29:22.336Z,7.47
2018-03-22T23:31:49.812Z,7.13
2018-03-22T23:34:17.274Z,8.32
2018-03-22T23:36:44.745Z,8.37
2018-03-22T23:39:12.954Z,7.47
2018-03-22T23:41:40.403Z,8.70
2018-03-22T23:44:07.871Z,7.77
2018-03-22T23:46:35.337Z,9.13
2018-03-22T23:49:02.784Z,7.20
2018-03-22T23:51:30.224Z,7.80
2018-03-22T23:53:58.442Z,7.50
2018-03-22T23:56:25.899Z,7.70
2018-03-22T23:58:53.373Z,8.73
